sensor_id;sensor_type;location;lat;lon;timestamp;temperature;humidity
22678;DHT22;26259;50.214;18.620;2023-02-23T00:00:25;0.70;99.90
22678;DHT22;26259;50.214;18.620;2023-02-23T00:02:54;0.70;99.90
22678;DHT22;26259;50.214;18.620;2023-02-23T00:05:29;0.70;99.90
22678;DHT22;26259;50.214;18.620;2023-02-23T00:07:55;0.70;99.90
22678;DHT22;26259;50.214;18.620;2023-02-23T00:10:22;0.70;99.90
22678;DHT22;26259;50.214;18.620;2023-02-23T00:12:55;0.70;99.90
22678;DHT22;26259;50.214;18.620;2023-02-23T00:15:21;0.60;99.90
22678;DHT22;26259;50.214;18.620;2023-02-23T00:17:54;0.60;99.90
22678;DHT22;26259;50.214;18.620;2023-02-23T00:20:20;0.50;99.90
22678;DHT22;26259;50.214;18.620;2023-02-23T00:22:53;0.50;99.90
22678;DHT22;26259;50.214;18.620;2023-02-23T00:25:19;0.30;99.90
22678;DHT22;26259;50.214;18.620;2023-02-23T00:27:45;0.30;99.90
22678;DHT22;26259;50.214;18.620;2023-02-23T00:30:15;0.20;99.90
22678;DHT22;26259;50.214;18.620;2023-02-23T00:32:43;0.10;99.90
22678;DHT22;26259;50.214;18.620;2023-02-23T00:35:08;0.10;99.90
22678;DHT22;26259;50.214;18.620;2023-02-23T00:37:43;0.10;99.90
22678;DHT22;26259;50.214;18.620;2023-02-23T00:40:10;0.10;99.90
22678;DHT22;26259;50.214;18.620;2023-02-23T00:42:39;0.10;99.90
22678;DHT22;26259;50.214;18.620;2023-02-23T00:45:06;0.00;99.90
22678;DHT22;26259;50.214;18.620;2023-02-23T00:47:36;0.10;99.90
22678;DHT22;26259;50.214;18.620;2023-02-23T00:50:01;0.20;99.90
22678;DHT22;26259;50.214;18.620;2023-02-23T00:52:28;0.10;99.90
22678;DHT22;26259;50.214;18.620;2023-02-23T00:54:54;0.10;99.90
22678;DHT22;26259;50.214;18.620;2023-02-23T00:57:20;0.20;99.90
22678;DHT22;26259;50.214;18.620;2023-02-23T00:59:47;0.10;99.90
22678;DHT22;26259;50.214;18.620;2023-02-23T01:02:12;0.00;99.90
22678;DHT22;26259;50.214;18.620;2023-02-23T01:04:38;0.00;99.90
22678;DHT22;26259;50.214;18.620;2023-02-23T01:07:04;0.00;99.90
22678;DHT22;26259;50.214;18.620;2023-02-23T01:09:31;0.00;99.90
22678;DHT22;26259;50.214;18.620;2023-02-23T01:11:57;-0.10;99.90
22678;DHT22;26259;50.214;18.620;2023-02-23T01:14:26;-0.10;99.90
22678;DHT22;26259;50.214;18.620;2023-02-23T01:16:52;0.00;99.90
22678;DHT22;26259;50.214;18.620;2023-02-23T01:19:18;0.00;99.90
22678;DHT22;26259;50.214;18.620;2023-02-23T01:21:44;-0.10;99.90
22678;DHT22;26259;50.214;18.620;2023-02-23T01:24:10;-0.10;99.90
22678;DHT22;26259;50.214;18.620;2023-02-23T01:26:42;-0.20;99.90
22678;DHT22;26259;50.214;18.620;2023-02-23T01:29:17;-0.20;99.90
22678;DHT22;26259;50.214;18.620;2023-02-23T01:31:45;-0.20;99.90
22678;DHT22;26259;50.214;18.620;2023-02-23T01:34:12;-0.10;99.90
22678;DHT22;26259;50.214;18.620;2023-02-23T01:36:41;-0.10;99.90
22678;DHT22;26259;50.214;18.620;2023-02-23T01:39:10;-0.10;99.90
22678;DHT22;26259;50.214;18.620;2023-02-23T01:41:37;0.00;99.90
22678;DHT22;26259;50.214;18.620;2023-02-23T01:44:05;0.00;99.90
22678;DHT22;26259;50.214;18.620;2023-02-23T01:46:36;0.00;99.90
22678;DHT22;26259;50.214;18.620;2023-02-23T01:49:08;0.00;99.90
22678;DHT22;26259;50.214;18.620;2023-02-23T01:51:48;0.00;99.90
22678;DHT22;26259;50.214;18.620;2023-02-23T01:54:20;0.00;99.90
22678;DHT22;26259;50.214;18.620;2023-02-23T01:56:50;0.00;99.90
22678;DHT22;26259;50.214;18.620;2023-02-23T01:59:31;-0.10;99.90
22678;DHT22;26259;50.214;18.620;2023-02-23T02:14:56;-0.10;99.90
22678;DHT22;26259;50.214;18.620;2023-02-23T02:22:46;-0.30;99.90
22678;DHT22;26259;50.214;18.620;2023-02-23T02:25:33;-0.20;99.90
22678;DHT22;26259;50.214;18.620;2023-02-23T02:30:42;-0.40;99.90
22678;DHT22;26259;50.214;18.620;2023-02-23T02:46:29;-0.40;99.90
22678;DHT22;26259;50.214;18.620;2023-02-23T02:49:10;-0.50;99.90
22678;DHT22;26259;50.214;18.620;2023-02-23T02:56:51;-0.50;99.90
22678;DHT22;26259;50.214;18.620;2023-02-23T02:59:22;-0.50;99.90
22678;DHT22;26259;50.214;18.620;2023-02-23T03:02:14;-0.50;99.90
22678;DHT22;26259;50.214;18.620;2023-02-23T03:07:48;-0.50;99.90
22678;DHT22;26259;50.214;18.620;2023-02-23T03:13:50;-0.50;99.90
22678;DHT22;26259;50.214;18.620;2023-02-23T03:16:40;-0.60;99.90
22678;DHT22;26259;50.214;18.620;2023-02-23T03:24:59;-0.70;99.90
22678;DHT22;26259;50.214;18.620;2023-02-23T03:40:39;-0.70;99.90
22678;DHT22;26259;50.214;18.620;2023-02-23T03:48:35;-0.80;99.90
22678;DHT22;26259;50.214;18.620;2023-02-23T03:51:22;-0.80;99.90
22678;DHT22;26259;50.214;18.620;2023-02-23T03:56:51;-0.70;99.90
22678;DHT22;26259;50.214;18.620;2023-02-23T04:09:54;-0.90;99.90
22678;DHT22;26259;50.214;18.620;2023-02-23T04:15:44;-1.00;99.90
22678;DHT22;26259;50.214;18.620;2023-02-23T04:18:14;-1.10;99.90
22678;DHT22;26259;50.214;18.620;2023-02-23T04:20:40;-1.00;99.90
22678;DHT22;26259;50.214;18.620;2023-02-23T04:23:06;-1.00;99.90
22678;DHT22;26259;50.214;18.620;2023-02-23T04:25:31;-1.00;99.90
22678;DHT22;26259;50.214;18.620;2023-02-23T04:30:32;-1.10;99.90
22678;DHT22;26259;50.214;18.620;2023-02-23T04:53:41;-0.90;99.90
22678;DHT22;26259;50.214;18.620;2023-02-23T04:56:07;-1.00;99.90
22678;DHT22;26259;50.214;18.620;2023-02-23T04:58:32;-1.10;99.90
22678;DHT22;26259;50.214;18.620;2023-02-23T05:01:04;-1.10;99.90
22678;DHT22;26259;50.214;18.620;2023-02-23T05:03:30;-1.10;99.90
22678;DHT22;26259;50.214;18.620;2023-02-23T05:11:07;-1.10;99.90
22678;DHT22;26259;50.214;18.620;2023-02-23T05:16:08;-1.10;99.90
22678;DHT22;26259;50.214;18.620;2023-02-23T05:18:34;-1.20;99.90
22678;DHT22;26259;50.214;18.620;2023-02-23T05:28:45;-1.20;99.90
22678;DHT22;26259;50.214;18.620;2023-02-23T05:31:11;-1.20;99.90
22678;DHT22;26259;50.214;18.620;2023-02-23T05:33:37;-1.30;99.90
22678;DHT22;26259;50.214;18.620;2023-02-23T05:47:50;-1.20;99.90
22678;DHT22;26259;50.214;18.620;2023-02-23T05:52:52;-1.30;99.90
22678;DHT22;26259;50.214;18.620;2023-02-23T05:57:53;-1.20;99.90
22678;DHT22;26259;50.214;18.620;2023-02-23T06:02:54;-1.20;99.90
22678;DHT22;26259;50.214;18.620;2023-02-23T06:15:33;-0.80;99.90
22678;DHT22;26259;50.214;18.620;2023-02-23T06:23:07;-0.50;99.90
22678;DHT22;26259;50.214;18.620;2023-02-23T06:25:33;-0.40;99.90
22678;DHT22;26259;50.214;18.620;2023-02-23T06:27:58;-0.40;99.90
22678;DHT22;26259;50.214;18.620;2023-02-23T06:35:35;-0.20;99.90
22678;DHT22;26259;50.214;18.620;2023-02-23T06:38:01;-0.10;99.90
22678;DHT22;26259;50.214;18.620;2023-02-23T06:43:02;0.00;99.90
22678;DHT22;26259;50.214;18.620;2023-02-23T06:45:28;0.10;99.90
22678;DHT22;26259;50.214;18.620;2023-02-23T07:18:58;1.40;99.90
22678;DHT22;26259;50.214;18.620;2023-02-23T07:21:23;1.50;99.90
22678;DHT22;26259;50.214;18.620;2023-02-23T07:23:49;1.60;99.90
22678;DHT22;26259;50.214;18.620;2023-02-23T07:26:15;1.80;99.90
22678;DHT22;26259;50.214;18.620;2023-02-23T07:28:42;1.90;99.90
22678;DHT22;26259;50.214;18.620;2023-02-23T07:31:08;2.00;99.90
22678;DHT22;26259;50.214;18.620;2023-02-23T07:33:33;2.20;99.90
22678;DHT22;26259;50.214;18.620;2023-02-23T07:35:59;2.20;99.90
22678;DHT22;26259;50.214;18.620;2023-02-23T07:38:25;2.40;99.90
22678;DHT22;26259;50.214;18.620;2023-02-23T07:40:51;2.40;99.90
22678;DHT22;26259;50.214;18.620;2023-02-23T07:43:17;2.20;99.90
22678;DHT22;26259;50.214;18.620;2023-02-23T07:45:45;2.30;99.90
22678;DHT22;26259;50.214;18.620;2023-02-23T07:48:10;2.30;99.90
22678;DHT22;26259;50.214;18.620;2023-02-23T07:50:38;2.50;99.90
22678;DHT22;26259;50.214;18.620;2023-02-23T07:53:04;2.70;99.90
22678;DHT22;26259;50.214;18.620;2023-02-23T07:55:30;2.80;99.90
22678;DHT22;26259;50.214;18.620;2023-02-23T07:57:56;3.00;99.90
22678;DHT22;26259;50.214;18.620;2023-02-23T08:00:21;3.10;99.90
22678;DHT22;26259;50.214;18.620;2023-02-23T08:02:49;3.30;99.90
22678;DHT22;26259;50.214;18.620;2023-02-23T08:05:15;3.50;99.90
22678;DHT22;26259;50.214;18.620;2023-02-23T08:07:41;3.70;99.90
22678;DHT22;26259;50.214;18.620;2023-02-23T08:10:07;3.80;99.90
22678;DHT22;26259;50.214;18.620;2023-02-23T08:12:32;3.90;99.90
22678;DHT22;26259;50.214;18.620;2023-02-23T08:14:58;4.10;99.90
22678;DHT22;26259;50.214;18.620;2023-02-23T08:17:24;4.10;99.90
22678;DHT22;26259;50.214;18.620;2023-02-23T08:19:50;4.20;99.90
22678;DHT22;26259;50.214;18.620;2023-02-23T08:22:16;4.30;99.90
22678;DHT22;26259;50.214;18.620;2023-02-23T08:24:41;4.40;99.90
22678;DHT22;26259;50.214;18.620;2023-02-23T08:27:07;4.60;99.90
22678;DHT22;26259;50.214;18.620;2023-02-23T08:29:32;4.80;99.90
22678;DHT22;26259;50.214;18.620;2023-02-23T08:32:03;4.70;99.90
22678;DHT22;26259;50.214;18.620;2023-02-23T08:34:29;4.90;99.90
22678;DHT22;26259;50.214;18.620;2023-02-23T08:36:55;5.00;99.90
22678;DHT22;26259;50.214;18.620;2023-02-23T08:39:20;5.10;99.90
22678;DHT22;26259;50.214;18.620;2023-02-23T08:41:46;5.20;99.90
22678;DHT22;26259;50.214;18.620;2023-02-23T08:44:12;5.20;99.90
22678;DHT22;26259;50.214;18.620;2023-02-23T08:46:37;5.30;99.90
22678;DHT22;26259;50.214;18.620;2023-02-23T08:49:03;5.40;99.90
22678;DHT22;26259;50.214;18.620;2023-02-23T08:51:31;5.50;99.90
22678;DHT22;26259;50.214;18.620;2023-02-23T08:53:56;5.60;99.90
22678;DHT22;26259;50.214;18.620;2023-02-23T08:56:22;5.60;99.90
22678;DHT22;26259;50.214;18.620;2023-02-23T08:58:49;5.70;99.90
22678;DHT22;26259;50.214;18.620;2023-02-23T09:01:18;5.70;99.90
22678;DHT22;26259;50.214;18.620;2023-02-23T09:06:21;6.10;99.90
22678;DHT22;26259;50.214;18.620;2023-02-23T09:08:47;6.30;99.90
22678;DHT22;26259;50.214;18.620;2023-02-23T09:11:13;6.40;99.90
22678;DHT22;26259;50.214;18.620;2023-02-23T09:13:38;6.30;99.90
22678;DHT22;26259;50.214;18.620;2023-02-23T09:16:05;6.40;99.90
22678;DHT22;26259;50.214;18.620;2023-02-23T09:18:35;6.60;99.90
22678;DHT22;26259;50.214;18.620;2023-02-23T09:21:05;6.70;99.90
22678;DHT22;26259;50.214;18.620;2023-02-23T09:28:42;7.20;99.90
22678;DHT22;26259;50.214;18.620;2023-02-23T09:33:43;7.50;99.90
22678;DHT22;26259;50.214;18.620;2023-02-23T09:36:11;7.30;99.90
22678;DHT22;26259;50.214;18.620;2023-02-23T09:38:44;7.30;99.90
22678;DHT22;26259;50.214;18.620;2023-02-23T10:02:50;7.90;99.90
22678;DHT22;26259;50.214;18.620;2023-02-23T12:32:50;11.00;99.90
22678;DHT22;26259;50.214;18.620;2023-02-23T12:35:22;11.10;99.90
22678;DHT22;26259;50.214;18.620;2023-02-23T12:40:27;11.20;99.90
22678;DHT22;26259;50.214;18.620;2023-02-23T12:46:09;11.30;99.90
22678;DHT22;26259;50.214;18.620;2023-02-23T12:49:05;11.10;99.90
22678;DHT22;26259;50.214;18.620;2023-02-23T12:51:43;11.20;99.90
22678;DHT22;26259;50.214;18.620;2023-02-23T12:54:14;11.20;99.90
22678;DHT22;26259;50.214;18.620;2023-02-23T13:02:23;11.30;99.90
22678;DHT22;26259;50.214;18.620;2023-02-23T13:05:17;11.30;99.90
22678;DHT22;26259;50.214;18.620;2023-02-23T13:08:02;11.30;99.90
22678;DHT22;26259;50.214;18.620;2023-02-23T13:10:45;11.30;99.90
22678;DHT22;26259;50.214;18.620;2023-02-23T13:13:30;11.50;99.90
22678;DHT22;26259;50.214;18.620;2023-02-23T13:16:27;11.60;99.90
22678;DHT22;26259;50.214;18.620;2023-02-23T13:19:12;11.50;99.90
22678;DHT22;26259;50.214;18.620;2023-02-23T13:24:46;11.70;99.90
22678;DHT22;26259;50.214;18.620;2023-02-23T13:27:17;11.70;99.90
22678;DHT22;26259;50.214;18.620;2023-02-23T13:29:47;11.80;99.90
22678;DHT22;26259;50.214;18.620;2023-02-23T13:32:16;11.90;99.90
22678;DHT22;26259;50.214;18.620;2023-02-23T13:37:20;12.10;99.90
22678;DHT22;26259;50.214;18.620;2023-02-23T13:40:01;12.10;99.90
22678;DHT22;26259;50.214;18.620;2023-02-23T13:42:54;12.20;99.90
22678;DHT22;26259;50.214;18.620;2023-02-23T13:50:47;12.20;99.90
22678;DHT22;26259;50.214;18.620;2023-02-23T13:55:58;12.10;99.90
22678;DHT22;26259;50.214;18.620;2023-02-23T13:58:29;12.10;99.90
22678;DHT22;26259;50.214;18.620;2023-02-23T14:01:13;12.00;99.90
22678;DHT22;26259;50.214;18.620;2023-02-23T14:03:43;11.90;99.90
22678;DHT22;26259;50.214;18.620;2023-02-23T14:06:13;11.90;99.90
22678;DHT22;26259;50.214;18.620;2023-02-23T14:08:41;11.80;99.90
22678;DHT22;26259;50.214;18.620;2023-02-23T14:11:07;11.80;99.90
22678;DHT22;26259;50.214;18.620;2023-02-23T14:13:39;11.70;99.90
22678;DHT22;26259;50.214;18.620;2023-02-23T14:16:17;11.70;99.90
22678;DHT22;26259;50.214;18.620;2023-02-23T14:19:06;11.60;99.90
22678;DHT22;26259;50.214;18.620;2023-02-23T14:21:44;11.50;99.90
22678;DHT22;26259;50.214;18.620;2023-02-23T14:24:23;11.40;99.90
22678;DHT22;26259;50.214;18.620;2023-02-23T14:32:40;11.10;99.90
22678;DHT22;26259;50.214;18.620;2023-02-23T14:38:08;11.00;99.90
22678;DHT22;26259;50.214;18.620;2023-02-23T14:40:40;10.90;99.90
22678;DHT22;26259;50.214;18.620;2023-02-23T14:46:00;10.80;99.90
22678;DHT22;26259;50.214;18.620;2023-02-23T14:48:30;10.80;99.90
22678;DHT22;26259;50.214;18.620;2023-02-23T14:51:13;10.70;99.90
22678;DHT22;26259;50.214;18.620;2023-02-23T14:53:41;10.60;99.90
22678;DHT22;26259;50.214;18.620;2023-02-23T14:56:20;10.60;99.90
22678;DHT22;26259;50.214;18.620;2023-02-23T14:58:50;10.50;99.90
22678;DHT22;26259;50.214;18.620;2023-02-23T15:01:39;10.50;99.90
22678;DHT22;26259;50.214;18.620;2023-02-23T15:04:10;10.40;99.90
22678;DHT22;26259;50.214;18.620;2023-02-23T15:06:38;10.30;99.90
22678;DHT22;26259;50.214;18.620;2023-02-23T15:09:07;10.30;99.90
22678;DHT22;26259;50.214;18.620;2023-02-23T15:11:40;10.30;99.90
22678;DHT22;26259;50.214;18.620;2023-02-23T15:14:12;10.30;99.90
22678;DHT22;26259;50.214;18.620;2023-02-23T15:16:39;10.20;99.90
22678;DHT22;26259;50.214;18.620;2023-02-23T15:19:07;10.20;99.90
22678;DHT22;26259;50.214;18.620;2023-02-23T15:21:32;10.10;99.90
22678;DHT22;26259;50.214;18.620;2023-02-23T15:24:08;10.10;99.90
22678;DHT22;26259;50.214;18.620;2023-02-23T15:26:37;10.00;99.90
22678;DHT22;26259;50.214;18.620;2023-02-23T15:29:10;10.00;99.90
22678;DHT22;26259;50.214;18.620;2023-02-23T15:31:41;9.90;99.90
22678;DHT22;26259;50.214;18.620;2023-02-23T15:34:34;9.80;99.90
22678;DHT22;26259;50.214;18.620;2023-02-23T15:37:09;9.70;99.90
22678;DHT22;26259;50.214;18.620;2023-02-23T15:39:37;9.70;99.90
22678;DHT22;26259;50.214;18.620;2023-02-23T15:42:05;9.60;99.90
22678;DHT22;26259;50.214;18.620;2023-02-23T15:44:34;9.50;99.90
22678;DHT22;26259;50.214;18.620;2023-02-23T15:47:04;9.50;99.90
22678;DHT22;26259;50.214;18.620;2023-02-23T15:49:34;9.40;99.90
22678;DHT22;26259;50.214;18.620;2023-02-23T15:52:04;9.30;99.90
22678;DHT22;26259;50.214;18.620;2023-02-23T15:54:56;9.20;99.90
22678;DHT22;26259;50.214;18.620;2023-02-23T15:57:32;9.10;99.90
22678;DHT22;26259;50.214;18.620;2023-02-23T16:00:09;9.00;99.90
22678;DHT22;26259;50.214;18.620;2023-02-23T16:02:43;8.90;99.90
22678;DHT22;26259;50.214;18.620;2023-02-23T16:05:22;8.80;99.90
22678;DHT22;26259;50.214;18.620;2023-02-23T16:08:01;8.60;99.90
22678;DHT22;26259;50.214;18.620;2023-02-23T16:10:40;8.50;99.90
22678;DHT22;26259;50.214;18.620;2023-02-23T16:13:06;8.40;99.90
22678;DHT22;26259;50.214;18.620;2023-02-23T16:15:34;8.30;99.90
22678;DHT22;26259;50.214;18.620;2023-02-23T16:18:04;8.20;99.90
22678;DHT22;26259;50.214;18.620;2023-02-23T16:23:17;8.00;99.90
22678;DHT22;26259;50.214;18.620;2023-02-23T16:25:52;7.90;99.90
22678;DHT22;26259;50.214;18.620;2023-02-23T16:28:20;7.80;99.90
22678;DHT22;26259;50.214;18.620;2023-02-23T16:30:57;7.70;99.90
22678;DHT22;26259;50.214;18.620;2023-02-23T16:33:29;7.60;99.90
22678;DHT22;26259;50.214;18.620;2023-02-23T16:38:45;7.50;99.90
22678;DHT22;26259;50.214;18.620;2023-02-23T16:41:21;7.40;99.90
22678;DHT22;26259;50.214;18.620;2023-02-23T16:43:48;7.40;99.90
22678;DHT22;26259;50.214;18.620;2023-02-23T16:46:18;7.40;99.90
22678;DHT22;26259;50.214;18.620;2023-02-23T16:48:44;7.50;99.90
22678;DHT22;26259;50.214;18.620;2023-02-23T16:51:20;7.50;99.90
22678;DHT22;26259;50.214;18.620;2023-02-23T16:53:48;7.50;99.90
22678;DHT22;26259;50.214;18.620;2023-02-23T16:56:17;7.50;99.90
22678;DHT22;26259;50.214;18.620;2023-02-23T16:58:45;7.50;99.90
22678;DHT22;26259;50.214;18.620;2023-02-23T17:01:12;7.60;99.90
22678;DHT22;26259;50.214;18.620;2023-02-23T17:03:39;7.60;99.90
22678;DHT22;26259;50.214;18.620;2023-02-23T17:06:05;7.60;99.90
22678;DHT22;26259;50.214;18.620;2023-02-23T17:08:31;7.60;99.90
22678;DHT22;26259;50.214;18.620;2023-02-23T17:10:59;7.70;99.90
22678;DHT22;26259;50.214;18.620;2023-02-23T17:13:26;7.70;99.90
22678;DHT22;26259;50.214;18.620;2023-02-23T17:15:54;7.80;99.90
22678;DHT22;26259;50.214;18.620;2023-02-23T17:18:28;7.80;99.90
22678;DHT22;26259;50.214;18.620;2023-02-23T17:20:56;7.90;99.90
22678;DHT22;26259;50.214;18.620;2023-02-23T17:23:24;7.90;99.90
22678;DHT22;26259;50.214;18.620;2023-02-23T17:25:52;7.90;99.90
22678;DHT22;26259;50.214;18.620;2023-02-23T17:28:18;7.90;99.90
22678;DHT22;26259;50.214;18.620;2023-02-23T17:30:44;7.90;99.90
22678;DHT22;26259;50.214;18.620;2023-02-23T17:33:11;7.90;99.90
22678;DHT22;26259;50.214;18.620;2023-02-23T17:35:36;7.90;99.90
22678;DHT22;26259;50.214;18.620;2023-02-23T17:38:06;8.00;99.90
22678;DHT22;26259;50.214;18.620;2023-02-23T17:40:32;8.00;99.90
22678;DHT22;26259;50.214;18.620;2023-02-23T17:43:02;8.00;99.90
22678;DHT22;26259;50.214;18.620;2023-02-23T17:45:30;8.00;99.90
22678;DHT22;26259;50.214;18.620;2023-02-23T17:47:57;8.10;99.90
22678;DHT22;26259;50.214;18.620;2023-02-23T17:50:23;8.10;99.90
22678;DHT22;26259;50.214;18.620;2023-02-23T17:52:51;8.10;99.90
22678;DHT22;26259;50.214;18.620;2023-02-23T17:55:19;8.00;99.90
22678;DHT22;26259;50.214;18.620;2023-02-23T17:57:45;8.00;99.90
22678;DHT22;26259;50.214;18.620;2023-02-23T18:00:12;8.00;99.90
22678;DHT22;26259;50.214;18.620;2023-02-23T18:02:42;8.00;99.90
22678;DHT22;26259;50.214;18.620;2023-02-23T18:05:10;8.00;99.90
22678;DHT22;26259;50.214;18.620;2023-02-23T18:07:37;8.00;99.90
22678;DHT22;26259;50.214;18.620;2023-02-23T18:10:03;8.00;99.90
22678;DHT22;26259;50.214;18.620;2023-02-23T18:12:29;8.00;99.90
22678;DHT22;26259;50.214;18.620;2023-02-23T18:14:55;7.90;99.90
22678;DHT22;26259;50.214;18.620;2023-02-23T18:17:21;7.90;99.90
22678;DHT22;26259;50.214;18.620;2023-02-23T18:19:46;7.90;99.90
22678;DHT22;26259;50.214;18.620;2023-02-23T18:22:12;7.90;99.90
22678;DHT22;26259;50.214;18.620;2023-02-23T18:24:38;7.90;99.90
22678;DHT22;26259;50.214;18.620;2023-02-23T18:27:05;7.90;99.90
22678;DHT22;26259;50.214;18.620;2023-02-23T18:29:33;7.90;99.90
22678;DHT22;26259;50.214;18.620;2023-02-23T18:32:01;7.90;99.90
22678;DHT22;26259;50.214;18.620;2023-02-23T18:34:27;7.80;99.90
22678;DHT22;26259;50.214;18.620;2023-02-23T18:36:55;7.80;99.90
22678;DHT22;26259;50.214;18.620;2023-02-23T18:39:21;7.90;99.90
22678;DHT22;26259;50.214;18.620;2023-02-23T18:41:48;7.90;99.90
22678;DHT22;26259;50.214;18.620;2023-02-23T18:44:15;7.80;99.90
22678;DHT22;26259;50.214;18.620;2023-02-23T18:46:43;7.80;99.90
22678;DHT22;26259;50.214;18.620;2023-02-23T18:49:19;7.80;99.90
22678;DHT22;26259;50.214;18.620;2023-02-23T18:51:46;7.90;99.90
22678;DHT22;26259;50.214;18.620;2023-02-23T18:54:12;7.90;99.90
22678;DHT22;26259;50.214;18.620;2023-02-23T18:56:41;7.90;99.90
22678;DHT22;26259;50.214;18.620;2023-02-23T18:59:07;7.90;99.90
22678;DHT22;26259;50.214;18.620;2023-02-23T19:01:34;7.90;99.90
22678;DHT22;26259;50.214;18.620;2023-02-23T19:04:03;7.90;99.90
22678;DHT22;26259;50.214;18.620;2023-02-23T19:06:30;7.90;99.90
22678;DHT22;26259;50.214;18.620;2023-02-23T19:08:57;7.90;99.90
22678;DHT22;26259;50.214;18.620;2023-02-23T19:11:33;7.90;99.90
22678;DHT22;26259;50.214;18.620;2023-02-23T19:14:01;7.90;99.90
22678;DHT22;26259;50.214;18.620;2023-02-23T19:16:29;7.90;99.90
22678;DHT22;26259;50.214;18.620;2023-02-23T19:18:56;7.90;99.90
22678;DHT22;26259;50.214;18.620;2023-02-23T19:21:22;7.90;99.90
22678;DHT22;26259;50.214;18.620;2023-02-23T19:23:49;7.90;99.90
22678;DHT22;26259;50.214;18.620;2023-02-23T19:26:14;7.90;99.90
22678;DHT22;26259;50.214;18.620;2023-02-23T19:28:43;7.90;99.90
22678;DHT22;26259;50.214;18.620;2023-02-23T19:31:11;8.00;99.90
22678;DHT22;26259;50.214;18.620;2023-02-23T19:33:40;8.00;99.90
22678;DHT22;26259;50.214;18.620;2023-02-23T19:36:09;8.00;99.90
22678;DHT22;26259;50.214;18.620;2023-02-23T19:38:35;8.00;99.90
22678;DHT22;26259;50.214;18.620;2023-02-23T19:41:09;8.20;99.90
22678;DHT22;26259;50.214;18.620;2023-02-23T19:43:36;8.20;99.90
22678;DHT22;26259;50.214;18.620;2023-02-23T19:46:07;8.30;99.90
22678;DHT22;26259;50.214;18.620;2023-02-23T19:48:33;8.40;99.90
22678;DHT22;26259;50.214;18.620;2023-02-23T19:50:59;8.40;99.90
22678;DHT22;26259;50.214;18.620;2023-02-23T19:53:24;8.50;99.90
22678;DHT22;26259;50.214;18.620;2023-02-23T19:56:07;8.60;99.90
22678;DHT22;26259;50.214;18.620;2023-02-23T19:58:34;8.60;99.90
22678;DHT22;26259;50.214;18.620;2023-02-23T20:01:10;8.70;99.90
22678;DHT22;26259;50.214;18.620;2023-02-23T20:03:38;8.80;99.90
22678;DHT22;26259;50.214;18.620;2023-02-23T20:06:09;8.80;99.90
22678;DHT22;26259;50.214;18.620;2023-02-23T20:08:38;8.80;99.90
22678;DHT22;26259;50.214;18.620;2023-02-23T20:11:05;8.90;99.90
22678;DHT22;26259;50.214;18.620;2023-02-23T20:13:31;8.90;99.90
22678;DHT22;26259;50.214;18.620;2023-02-23T20:16:04;8.90;99.90
22678;DHT22;26259;50.214;18.620;2023-02-23T20:18:31;9.00;99.90
22678;DHT22;26259;50.214;18.620;2023-02-23T20:21:10;8.90;99.90
22678;DHT22;26259;50.214;18.620;2023-02-23T20:23:37;9.00;99.90
22678;DHT22;26259;50.214;18.620;2023-02-23T20:26:07;8.90;99.90
22678;DHT22;26259;50.214;18.620;2023-02-23T20:28:33;8.90;99.90
22678;DHT22;26259;50.214;18.620;2023-02-23T20:30:59;9.00;99.90
22678;DHT22;26259;50.214;18.620;2023-02-23T20:33:27;8.90;99.90
22678;DHT22;26259;50.214;18.620;2023-02-23T20:35:53;8.90;99.90
22678;DHT22;26259;50.214;18.620;2023-02-23T20:38:18;8.90;99.90
22678;DHT22;26259;50.214;18.620;2023-02-23T20:40:44;8.90;99.90
22678;DHT22;26259;50.214;18.620;2023-02-23T20:43:10;8.80;99.90
22678;DHT22;26259;50.214;18.620;2023-02-23T20:45:35;8.80;99.90
22678;DHT22;26259;50.214;18.620;2023-02-23T20:48:01;8.90;99.90
22678;DHT22;26259;50.214;18.620;2023-02-23T20:50:29;8.90;99.90
22678;DHT22;26259;50.214;18.620;2023-02-23T20:52:58;8.90;99.90
22678;DHT22;26259;50.214;18.620;2023-02-23T20:55:28;9.00;99.90
22678;DHT22;26259;50.214;18.620;2023-02-23T20:57:55;8.90;99.90
22678;DHT22;26259;50.214;18.620;2023-02-23T21:00:21;9.00;99.90
22678;DHT22;26259;50.214;18.620;2023-02-23T21:02:49;9.00;99.90
22678;DHT22;26259;50.214;18.620;2023-02-23T21:05:21;8.90;99.90
22678;DHT22;26259;50.214;18.620;2023-02-23T21:07:48;8.90;99.90
22678;DHT22;26259;50.214;18.620;2023-02-23T21:10:14;8.90;99.90
22678;DHT22;26259;50.214;18.620;2023-02-23T21:12:40;8.90;99.90
22678;DHT22;26259;50.214;18.620;2023-02-23T21:15:06;8.80;99.90
22678;DHT22;26259;50.214;18.620;2023-02-23T21:17:34;8.80;99.90
22678;DHT22;26259;50.214;18.620;2023-02-23T21:20:03;8.80;99.90
22678;DHT22;26259;50.214;18.620;2023-02-23T21:22:31;8.70;99.90
22678;DHT22;26259;50.214;18.620;2023-02-23T21:24:57;8.80;99.90
22678;DHT22;26259;50.214;18.620;2023-02-23T21:27:25;8.70;99.90
22678;DHT22;26259;50.214;18.620;2023-02-23T21:29:51;8.70;99.90
22678;DHT22;26259;50.214;18.620;2023-02-23T21:32:20;8.70;99.90
22678;DHT22;26259;50.214;18.620;2023-02-23T21:34:46;8.60;99.90
22678;DHT22;26259;50.214;18.620;2023-02-23T21:37:13;8.60;99.90
22678;DHT22;26259;50.214;18.620;2023-02-23T21:39:38;8.60;99.90
22678;DHT22;26259;50.214;18.620;2023-02-23T21:42:06;8.60;99.90
22678;DHT22;26259;50.214;18.620;2023-02-23T21:44:32;8.60;99.90
22678;DHT22;26259;50.214;18.620;2023-02-23T21:46:58;8.60;99.90
22678;DHT22;26259;50.214;18.620;2023-02-23T21:49:24;8.50;99.90
22678;DHT22;26259;50.214;18.620;2023-02-23T21:51:49;8.50;99.90
22678;DHT22;26259;50.214;18.620;2023-02-23T21:54:15;8.50;99.90
22678;DHT22;26259;50.214;18.620;2023-02-23T21:56:42;8.40;99.90
22678;DHT22;26259;50.214;18.620;2023-02-23T21:59:08;8.50;99.90
22678;DHT22;26259;50.214;18.620;2023-02-23T22:01:36;8.50;99.90
22678;DHT22;26259;50.214;18.620;2023-02-23T22:04:04;8.40;99.90
22678;DHT22;26259;50.214;18.620;2023-02-23T22:06:35;8.50;99.90
22678;DHT22;26259;50.214;18.620;2023-02-23T22:09:04;8.50;99.90
22678;DHT22;26259;50.214;18.620;2023-02-23T22:11:30;8.40;99.90
22678;DHT22;26259;50.214;18.620;2023-02-23T22:13:57;8.50;99.90
22678;DHT22;26259;50.214;18.620;2023-02-23T22:16:26;8.50;99.90
22678;DHT22;26259;50.214;18.620;2023-02-23T22:18:51;8.50;99.90
22678;DHT22;26259;50.214;18.620;2023-02-23T22:21:17;8.40;99.90
22678;DHT22;26259;50.214;18.620;2023-02-23T22:23:43;8.40;99.90
22678;DHT22;26259;50.214;18.620;2023-02-23T22:26:11;8.40;99.90
22678;DHT22;26259;50.214;18.620;2023-02-23T22:28:37;8.30;99.90
22678;DHT22;26259;50.214;18.620;2023-02-23T22:31:08;8.30;99.90
22678;DHT22;26259;50.214;18.620;2023-02-23T22:33:35;8.30;99.90
22678;DHT22;26259;50.214;18.620;2023-02-23T22:36:05;8.30;99.90
22678;DHT22;26259;50.214;18.620;2023-02-23T22:38:33;8.30;99.90
22678;DHT22;26259;50.214;18.620;2023-02-23T22:40:58;8.30;99.90